createdAt,value
2018-06-09T00:00:33.500Z,16.80
2018-06-09T00:03:02.613Z,16.80
2018-06-09T00:05:30.804Z,16.80
2018-06-09T00:07:59.040Z,16.80
2018-06-09T00:10:27.239Z,16.80
2018-06-09T00:12:55.462Z,16.80
2018-06-09T00:15:23.711Z,16.80
2018-06-09T00:17:51.923Z,16.70
2018-06-09T00:20:20.145Z,16.80
2018-06-09T00:22:48.356Z,16.80
2018-06-09T00:25:16.706Z,16.80
2018-06-09T00:27:44.908Z,16.80
2018-06-09T00:30:13.143Z,16.80
2018-06-09T00:32:41.365Z,16.80
2018-06-09T00:35:09.564Z,16.70
2018-06-09T00:37:37.763Z,16.70
2018-06-09T00:40:05.979Z,16.70
2018-06-09T00:42:34.184Z,16.70
2018-06-09T00:45:02.398Z,16.70
2018-06-09T00:47:30.621Z,16.70
2018-06-09T00:49:58.831Z,16.70
2018-06-09T00:52:27.061Z,16.70
2018-06-09T00:54:55.292Z,16.70
2018-06-09T00:57:23.499Z,16.60
2018-06-09T01:02:19.720Z,16.60
2018-06-09T01:04:47.915Z,16.50
2018-06-09T01:07:16.176Z,16.50
2018-06-09T01:12:12.319Z,16.50
2018-06-09T01:14:40.513Z,16.50
2018-06-09T01:17:08.731Z,16.50
2018-06-09T01:19:36.944Z,16.40
2018-06-09T01:22:05.341Z,16.40
2018-06-09T01:24:33.535Z,16.40
2018-06-09T01:27:01.771Z,16.30
2018-06-09T01:29:30.068Z,16.30
2018-06-09T01:31:58.288Z,16.20
2018-06-09T01:34:26.484Z,16.20
2018-06-09T01:36:54.700Z,16.20
2018-06-09T01:39:22.908Z,16.20
2018-06-09T01:41:51.126Z,16.20
2018-06-09T01:44:19.936Z,16.20
2018-06-09T01:46:48.180Z,16.30
2018-06-09T01:49:16.401Z,16.30
2018-06-09T01:51:44.656Z,16.30
2018-06-09T01:54:13.468Z,16.30
2018-06-09T01:56:41.672Z,16.30
2018-06-09T01:59:09.884Z,16.30
2018-06-09T02:01:38.091Z,16.30
2018-06-09T02:06:34.260Z,16.40
2018-06-09T02:09:02.491Z,16.30
2018-06-09T02:11:30.708Z,16.30
2018-06-09T02:13:58.908Z,16.20
2018-06-09T02:16:27.107Z,16.20
2018-06-09T02:21:23.283Z,16.10
2018-06-09T02:23:51.503Z,16.00
2018-06-09T02:26:19.709Z,15.90
2018-06-09T02:28:47.911Z,15.90
2018-06-09T02:31:16.714Z,15.90
2018-06-09T02:33:44.935Z,15.90
2018-06-09T02:36:13.129Z,15.80
2018-06-09T02:38:41.337Z,15.80
2018-06-09T02:41:09.571Z,15.70
2018-06-09T02:43:37.812Z,15.70
2018-06-09T02:46:06.021Z,15.70
2018-06-09T02:48:34.204Z,15.80
2018-06-09T02:51:02.443Z,15.80
2018-06-09T02:55:58.692Z,15.90
2018-06-09T02:58:27.073Z,15.90
2018-06-09T03:00:55.272Z,15.90
2018-06-09T03:03:23.472Z,16.00
2018-06-09T03:05:51.707Z,15.90
2018-06-09T03:08:19.935Z,15.90
2018-06-09T03:10:48.138Z,15.90
2018-06-09T03:13:16.360Z,15.80
2018-06-09T03:15:44.589Z,15.80
2018-06-09T03:18:12.780Z,15.90
2018-06-09T03:20:40.992Z,15.80
2018-06-09T03:23:09.212Z,15.90
2018-06-09T03:25:37.432Z,15.80
2018-06-09T03:28:05.627Z,15.90
2018-06-09T03:33:01.820Z,15.80
2018-06-09T03:35:30.065Z,15.80
2018-06-09T03:37:59.301Z,15.80
2018-06-09T03:40:27.484Z,15.80
2018-06-09T03:42:55.717Z,15.70
2018-06-09T03:45:23.916Z,15.70
2018-06-09T03:47:52.157Z,15.70
2018-06-09T03:50:20.387Z,15.70
2018-06-09T03:52:48.592Z,15.70
2018-06-09T03:55:17.081Z,15.80
2018-06-09T03:57:45.292Z,15.80
2018-06-09T04:00:13.519Z,15.80
2018-06-09T04:05:09.672Z,15.90
2018-06-09T04:07:37.910Z,15.90
2018-06-09T04:10:06.110Z,16.00
2018-06-09T04:12:34.368Z,16.00
2018-06-09T04:15:02.676Z,16.10
2018-06-09T04:17:30.880Z,16.10
2018-06-09T04:19:59.079Z,16.20
2018-06-09T04:22:27.290Z,16.20
2018-06-09T04:24:55.508Z,16.30
2018-06-09T04:27:23.702Z,16.30
2018-06-09T04:29:51.919Z,16.30
2018-06-09T04:32:20.205Z,16.40
2018-06-09T04:34:48.383Z,16.40
2018-06-09T04:37:16.593Z,16.40
2018-06-09T04:42:12.764Z,16.50
2018-06-09T04:44:40.992Z,16.50
2018-06-09T04:47:09.189Z,16.60
2018-06-09T04:49:37.424Z,16.70
2018-06-09T04:52:05.620Z,16.70
2018-06-09T04:54:33.872Z,16.80
2018-06-09T04:57:02.096Z,16.80
2018-06-09T04:59:30.300Z,16.90
2018-06-09T05:01:58.524Z,16.90
2018-06-09T05:04:26.773Z,17.10
2018-06-09T05:06:54.968Z,17.10
2018-06-09T05:09:23.164Z,17.20
2018-06-09T05:11:51.463Z,17.20
2018-06-09T05:14:19.684Z,17.40
2018-06-09T05:16:47.887Z,17.40
2018-06-09T05:21:44.073Z,17.60
2018-06-09T05:24:12.264Z,17.70
2018-06-09T05:26:40.464Z,17.80
2018-06-09T05:29:36.612Z,17.90
2018-06-09T05:32:05.095Z,18.00
2018-06-09T05:34:33.497Z,18.10
2018-06-09T05:37:01.696Z,18.10
2018-06-09T05:39:29.919Z,18.20
2018-06-09T05:41:58.283Z,18.30
2018-06-09T05:44:26.849Z,18.30
2018-06-09T05:46:55.049Z,18.40
2018-06-09T05:49:23.437Z,18.40
2018-06-09T05:51:51.639Z,18.50
2018-06-09T05:54:20.156Z,18.50
2018-06-09T05:56:48.922Z,18.60
2018-06-09T05:59:17.128Z,18.60
2018-06-09T06:01:45.321Z,18.80
2018-06-09T06:04:13.697Z,18.80
2018-06-09T06:06:41.996Z,18.90
2018-06-09T06:09:10.205Z,19.00
2018-06-09T06:11:38.732Z,19.10
2018-06-09T06:14:06.933Z,19.30
2018-06-09T06:16:35.137Z,19.30
2018-06-09T06:19:03.357Z,19.40
2018-06-09T06:21:31.612Z,19.40
2018-06-09T06:23:59.900Z,19.50
2018-06-09T06:26:28.199Z,19.50
2018-06-09T06:28:56.434Z,19.50
2018-06-09T06:31:24.641Z,19.50
2018-06-09T06:33:52.855Z,19.50
2018-06-09T06:36:21.040Z,19.50
2018-06-09T06:38:49.253Z,19.50
2018-06-09T06:41:17.484Z,19.60
2018-06-09T06:43:45.699Z,19.60
2018-06-09T06:46:14.028Z,19.70
2018-06-09T06:48:42.244Z,19.70
2018-06-09T06:51:10.466Z,19.80
2018-06-09T06:53:38.692Z,19.90
2018-06-09T06:56:06.930Z,19.90
2018-06-09T06:58:35.147Z,20.00
2018-06-09T07:01:03.458Z,20.10
2018-06-09T07:03:31.606Z,20.10
2018-06-09T07:05:59.828Z,20.20
2018-06-09T07:10:55.996Z,20.30
2018-06-09T07:13:24.304Z,20.30
2018-06-09T07:15:52.484Z,20.30
2018-06-09T07:18:20.718Z,20.40
2018-06-09T07:20:48.928Z,20.40
2018-06-09T07:23:17.141Z,20.50
2018-06-09T07:25:45.353Z,20.50
2018-06-09T07:28:13.555Z,20.60
2018-06-09T07:30:41.801Z,20.70
2018-06-09T07:38:05.984Z,21.00
2018-06-09T07:40:34.216Z,21.00
2018-06-09T07:43:02.416Z,21.20
2018-06-09T07:45:30.640Z,21.20
2018-06-09T07:47:58.886Z,21.30
2018-06-09T07:50:27.063Z,21.30
2018-06-09T07:52:55.621Z,21.30
2018-06-09T07:55:23.944Z,21.40
2018-06-09T07:57:52.172Z,21.50
2018-06-09T08:00:20.387Z,21.50
2018-06-09T08:02:48.712Z,21.60
2018-06-09T08:05:16.915Z,21.70
2018-06-09T08:07:45.172Z,21.80
2018-06-09T08:10:13.400Z,21.90
2018-06-09T08:12:41.605Z,22.00
2018-06-09T08:15:09.848Z,22.00
2018-06-09T08:17:38.055Z,22.00
2018-06-09T08:20:06.303Z,22.10
2018-06-09T08:22:34.511Z,22.20
2018-06-09T08:25:02.756Z,22.30
2018-06-09T08:27:30.979Z,22.50
2018-06-09T08:29:59.202Z,22.60
2018-06-09T08:32:27.441Z,22.80
2018-06-09T08:34:55.685Z,22.90
2018-06-09T08:39:51.958Z,23.40
2018-06-09T08:42:20.168Z,23.80
2018-06-09T08:44:48.370Z,24.00
2018-06-09T08:47:16.577Z,24.10
2018-06-09T08:49:44.766Z,24.20
2018-06-09T08:52:12.997Z,24.10
2018-06-09T08:54:41.233Z,24.00
2018-06-09T08:57:09.428Z,24.00
2018-06-09T08:59:37.652Z,24.00
2018-06-09T09:02:05.892Z,23.90
2018-06-09T09:04:34.140Z,23.80
2018-06-09T09:07:02.400Z,23.70
2018-06-09T09:09:30.645Z,23.80
2018-06-09T09:11:59.939Z,23.90
2018-06-09T09:14:28.175Z,24.00
2018-06-09T09:16:56.409Z,24.10
2018-06-09T09:19:24.682Z,24.00
2018-06-09T09:21:52.888Z,24.00
2018-06-09T09:24:21.097Z,24.00
2018-06-09T09:26:49.344Z,24.10
2018-06-09T09:29:17.553Z,24.20
2018-06-09T09:31:45.787Z,24.30
2018-06-09T09:34:14.105Z,24.50
2018-06-09T09:39:10.247Z,24.70
2018-06-09T09:41:38.478Z,24.90
2018-06-09T09:44:06.701Z,25.00
2018-06-09T09:46:34.895Z,25.00
2018-06-09T09:49:03.122Z,24.90
2018-06-09T09:51:31.312Z,24.80
2018-06-09T09:53:59.592Z,24.80
2018-06-09T09:56:27.867Z,24.90
2018-06-09T09:58:56.100Z,24.80
2018-06-09T10:01:24.304Z,24.80
2018-06-09T10:03:52.536Z,24.80
2018-06-09T10:06:20.937Z,25.00
2018-06-09T10:08:49.829Z,25.00
2018-06-09T10:11:18.025Z,25.10
2018-06-09T10:13:46.215Z,25.10
2018-06-09T10:16:14.427Z,25.10
2018-06-09T10:18:42.645Z,25.00
2018-06-09T10:21:10.860Z,25.00
2018-06-09T10:23:39.060Z,25.00
2018-06-09T10:26:07.280Z,25.10
2018-06-09T10:28:35.484Z,25.30
2018-06-09T10:31:03.695Z,25.40
2018-06-09T10:33:31.964Z,25.50
2018-06-09T10:36:00.298Z,25.70
2018-06-09T10:38:28.483Z,26.00
2018-06-09T10:40:56.708Z,26.40
2018-06-09T10:43:24.960Z,26.80
2018-06-09T10:45:53.140Z,27.00
2018-06-09T10:48:21.356Z,27.20
2018-06-09T10:50:49.630Z,27.30
2018-06-09T10:53:17.824Z,27.20
2018-06-09T10:55:46.099Z,27.10
2018-06-09T10:58:14.317Z,26.90
2018-06-09T11:00:42.527Z,26.80
2018-06-09T11:03:10.745Z,26.70
2018-06-09T11:05:38.959Z,26.50
2018-06-09T11:08:07.209Z,26.40
2018-06-09T11:10:35.424Z,26.30
2018-06-09T11:13:03.662Z,26.20
2018-06-09T11:15:31.884Z,26.20
2018-06-09T11:18:00.119Z,26.30
2018-06-09T11:20:28.325Z,26.30
2018-06-09T11:22:56.533Z,26.30
2018-06-09T11:25:24.744Z,26.50
2018-06-09T11:27:52.952Z,26.70
2018-06-09T11:30:21.184Z,26.90
2018-06-09T11:32:49.373Z,27.00
2018-06-09T11:35:17.597Z,27.10
2018-06-09T11:37:45.837Z,27.10
2018-06-09T11:40:14.053Z,27.00
2018-06-09T11:42:42.249Z,26.80
2018-06-09T11:45:10.489Z,26.70
2018-06-09T11:47:38.695Z,26.60
2018-06-09T11:50:06.893Z,26.60
2018-06-09T11:52:35.114Z,26.70
2018-06-09T11:55:03.341Z,26.80
2018-06-09T11:57:31.539Z,26.90
2018-06-09T11:59:59.760Z,27.00
2018-06-09T12:02:27.973Z,27.10
2018-06-09T12:04:56.178Z,27.30
2018-06-09T12:07:24.380Z,27.50
2018-06-09T12:09:52.624Z,27.60
2018-06-09T12:12:20.900Z,27.70
2018-06-09T12:14:49.099Z,27.90
2018-06-09T12:17:17.377Z,28.00
2018-06-09T12:19:45.511Z,28.10
2018-06-09T12:22:13.738Z,28.10
2018-06-09T12:24:42.551Z,28.20
2018-06-09T12:27:10.773Z,28.20
2018-06-09T12:29:39.021Z,28.20
2018-06-09T12:32:07.240Z,28.30
2018-06-09T12:34:35.416Z,28.50
2018-06-09T12:37:03.637Z,28.50
2018-06-09T12:39:31.836Z,28.60
2018-06-09T12:42:00.042Z,28.70
2018-06-09T12:44:28.282Z,28.70
2018-06-09T12:46:56.492Z,28.70
2018-06-09T12:49:24.689Z,28.80
2018-06-09T12:51:52.910Z,28.80
2018-06-09T12:54:21.095Z,28.90
2018-06-09T12:56:49.314Z,28.90
2018-06-09T12:59:17.534Z,28.80
2018-06-09T13:01:45.789Z,28.80
2018-06-09T13:04:14.043Z,28.70
2018-06-09T13:06:42.257Z,28.70
2018-06-09T13:09:10.497Z,28.60
2018-06-09T13:11:38.732Z,28.50
2018-06-09T13:14:07.060Z,28.50
2018-06-09T13:16:35.277Z,28.40
2018-06-09T13:19:03.467Z,28.30
2018-06-09T13:21:31.668Z,28.30
2018-06-09T13:23:59.940Z,28.40
2018-06-09T13:26:28.152Z,28.60
2018-06-09T13:28:56.335Z,28.70
2018-06-09T13:31:24.856Z,28.90
2018-06-09T13:33:53.089Z,29.20
2018-06-09T13:36:21.451Z,29.40
2018-06-09T13:41:23.223Z,29.40
2018-06-09T13:43:51.424Z,29.40
2018-06-09T13:46:19.644Z,29.20
2018-06-09T13:48:47.849Z,29.00
2018-06-09T13:51:16.049Z,28.90
2018-06-09T13:53:44.248Z,28.70
2018-06-09T13:56:12.489Z,28.50
2018-06-09T13:58:40.680Z,28.40
2018-06-09T14:01:08.913Z,28.20
2018-06-09T14:03:37.136Z,28.00
2018-06-09T14:06:05.355Z,27.80
2018-06-09T14:08:33.571Z,27.70
2018-06-09T14:11:02.488Z,27.50
2018-06-09T14:13:30.712Z,27.30
2018-06-09T14:15:58.948Z,27.10
2018-06-09T14:18:27.185Z,26.90
2018-06-09T14:20:55.380Z,26.80
2018-06-09T14:25:51.603Z,26.50
2018-06-09T14:28:19.816Z,26.30
2018-06-09T14:30:48.053Z,26.10
2018-06-09T14:33:16.245Z,26.00
2018-06-09T14:35:44.532Z,25.90
2018-06-09T14:38:12.792Z,25.80
2018-06-09T14:40:41.001Z,25.70
2018-06-09T14:43:09.380Z,25.60
2018-06-09T14:48:05.508Z,25.50
2018-06-09T14:50:33.703Z,25.40
2018-06-09T14:53:02.132Z,25.30
2018-06-09T14:55:30.357Z,25.20
2018-06-09T14:57:58.572Z,25.20
2018-06-09T15:00:26.796Z,25.00
2018-06-09T15:02:55.009Z,24.90
2018-06-09T15:05:23.200Z,24.80
2018-06-09T15:07:51.456Z,24.80
2018-06-09T15:10:19.653Z,24.70
2018-06-09T15:12:47.904Z,24.60
2018-06-09T15:17:44.076Z,24.60
2018-06-09T15:20:12.302Z,24.50
2018-06-09T15:22:40.556Z,24.50
2018-06-09T15:25:08.810Z,24.40
2018-06-09T15:27:37.012Z,24.50
2018-06-09T15:30:05.212Z,24.40
2018-06-09T15:32:33.403Z,24.40
2018-06-09T15:35:02.485Z,24.40
2018-06-09T15:37:30.749Z,24.40
2018-06-09T15:39:59.015Z,24.40
2018-06-09T15:42:27.234Z,24.50
2018-06-09T15:44:55.441Z,24.50
2018-06-09T15:47:23.658Z,24.50
2018-06-09T15:49:51.877Z,24.50
2018-06-09T15:52:20.148Z,24.50
2018-06-09T15:54:48.452Z,24.50
2018-06-09T15:57:16.636Z,24.50
2018-06-09T15:59:44.832Z,24.60
2018-06-09T16:02:13.057Z,24.60
2018-06-09T16:04:41.269Z,24.70
2018-06-09T16:07:09.464Z,24.80
2018-06-09T16:09:37.669Z,25.00
2018-06-09T16:12:05.951Z,25.10
2018-06-09T16:14:34.191Z,25.20
2018-06-09T16:17:02.380Z,25.30
2018-06-09T16:19:30.610Z,25.40
2018-06-09T16:21:58.853Z,25.50
2018-06-09T16:24:27.164Z,25.50
2018-06-09T16:26:55.377Z,25.50
2018-06-09T16:29:23.684Z,25.50
2018-06-09T16:31:51.841Z,25.40
2018-06-09T16:34:20.076Z,25.40
2018-06-09T16:36:48.411Z,25.30
2018-06-09T16:39:16.628Z,25.20
2018-06-09T16:41:44.849Z,25.10
2018-06-09T16:44:13.061Z,25.00
2018-06-09T16:46:41.308Z,25.00
2018-06-09T16:49:09.576Z,25.00
2018-06-09T16:51:37.792Z,24.90
2018-06-09T16:54:06.032Z,24.90
2018-06-09T16:56:34.277Z,24.80
2018-06-09T16:59:02.569Z,24.80
2018-06-09T17:01:30.764Z,24.80
2018-06-09T17:03:58.975Z,24.70
2018-06-09T17:06:28.221Z,24.70
2018-06-09T17:08:56.497Z,24.60
2018-06-09T17:11:24.711Z,24.60
2018-06-09T17:13:52.923Z,24.40
2018-06-09T17:16:21.153Z,24.30
2018-06-09T17:18:49.391Z,24.20
2018-06-09T17:21:17.604Z,24.10
2018-06-09T17:23:45.795Z,24.00
2018-06-09T17:26:14.009Z,23.80
2018-06-09T17:28:42.232Z,23.70
2018-06-09T17:31:10.456Z,23.50
2018-06-09T17:33:38.693Z,23.40
2018-06-09T17:36:06.896Z,23.30
2018-06-09T17:38:35.080Z,22.90
2018-06-09T17:41:03.326Z,22.40
2018-06-09T17:43:31.544Z,21.80
2018-06-09T17:45:59.748Z,21.30
2018-06-09T17:48:27.972Z,21.00
2018-06-09T17:50:56.172Z,20.80
2018-06-09T17:53:24.399Z,20.60
2018-06-09T17:55:52.643Z,20.60
2018-06-09T17:58:20.932Z,20.60
2018-06-09T18:00:49.230Z,20.60
2018-06-09T18:03:17.459Z,20.70
2018-06-09T18:05:45.704Z,20.80
2018-06-09T18:08:13.911Z,20.90
2018-06-09T18:10:42.113Z,21.10
2018-06-09T18:13:10.331Z,21.30
2018-06-09T18:15:38.544Z,21.40
2018-06-09T18:18:06.792Z,21.50
2018-06-09T18:20:35.008Z,21.60
2018-06-09T18:23:03.261Z,21.70
2018-06-09T18:25:31.427Z,21.60
2018-06-09T18:27:59.631Z,21.70
2018-06-09T18:30:27.861Z,21.70
2018-06-09T18:32:56.120Z,21.70
2018-06-09T18:35:24.372Z,21.70
2018-06-09T18:37:52.628Z,21.70
2018-06-09T18:40:20.872Z,21.70
2018-06-09T18:42:49.076Z,21.60
2018-06-09T18:45:17.308Z,21.60
2018-06-09T18:47:45.600Z,21.50
2018-06-09T18:50:13.816Z,21.40
2018-06-09T18:52:42.037Z,21.40
2018-06-09T18:55:10.252Z,21.30
2018-06-09T18:57:38.500Z,21.20
2018-06-09T19:00:06.724Z,21.10
2018-06-09T19:02:34.947Z,21.00
2018-06-09T19:05:03.188Z,20.80
2018-06-09T19:07:31.407Z,20.70
2018-06-09T19:09:59.656Z,20.60
2018-06-09T19:12:27.896Z,20.50
2018-06-09T19:14:56.111Z,20.40
2018-06-09T19:17:24.334Z,20.20
2018-06-09T19:19:52.639Z,20.10
2018-06-09T19:22:20.838Z,20.00
2018-06-09T19:24:49.055Z,19.90
2018-06-09T19:27:17.285Z,19.80
2018-06-09T19:29:45.533Z,19.70
2018-06-09T19:32:13.752Z,19.70
2018-06-09T19:34:41.970Z,19.70
2018-06-09T19:37:10.164Z,19.60
2018-06-09T19:39:38.401Z,19.50
2018-06-09T19:42:06.608Z,19.50
2018-06-09T19:44:34.947Z,19.50
2018-06-09T19:47:03.165Z,19.50
2018-06-09T19:49:31.359Z,19.40
2018-06-09T19:51:59.607Z,19.40
2018-06-09T19:54:27.786Z,19.40
2018-06-09T19:56:56.005Z,19.40
2018-06-09T19:59:24.206Z,19.40
2018-06-09T20:01:52.533Z,19.50
2018-06-09T20:04:20.731Z,19.50
2018-06-09T20:06:48.965Z,19.50
2018-06-09T20:09:17.173Z,19.50
2018-06-09T20:11:45.396Z,19.50
2018-06-09T20:14:13.613Z,19.50
2018-06-09T20:16:41.834Z,19.40
2018-06-09T20:19:10.053Z,19.40
2018-06-09T20:21:38.395Z,19.40
2018-06-09T20:24:06.600Z,19.40
2018-06-09T20:26:35.812Z,19.40
2018-06-09T20:29:04.087Z,19.30
2018-06-09T20:31:32.369Z,19.30
2018-06-09T20:34:00.572Z,19.20
2018-06-09T20:36:28.816Z,19.20
2018-06-09T20:38:57.050Z,19.10
2018-06-09T20:41:25.279Z,19.10
2018-06-09T20:43:53.489Z,19.10
2018-06-09T20:46:21.725Z,19.00
2018-06-09T20:48:49.932Z,19.00
2018-06-09T20:51:18.184Z,19.00
2018-06-09T20:53:46.383Z,19.00
2018-06-09T20:56:14.578Z,19.00
2018-06-09T20:58:42.804Z,19.00
2018-06-09T21:01:11.009Z,19.00
2018-06-09T21:03:41.249Z,18.90
2018-06-09T21:06:09.519Z,18.90
2018-06-09T21:08:38.850Z,18.80
2018-06-09T21:13:35.607Z,18.80
2018-06-09T21:16:04.892Z,18.80
2018-06-09T21:18:33.246Z,18.70
2018-06-09T21:21:01.521Z,18.70
2018-06-09T21:23:30.833Z,18.60
2018-06-09T21:25:59.120Z,18.50
2018-06-09T21:28:28.406Z,18.40
2018-06-09T21:31:00.907Z,18.30
2018-06-09T21:33:45.975Z,18.20
2018-06-09T21:36:18.509Z,18.10
2018-06-09T21:38:52.231Z,18.00
2018-06-09T21:41:22.508Z,18.00
2018-06-09T21:43:52.166Z,17.90
2018-06-09T21:46:26.046Z,17.80
2018-06-09T21:48:54.260Z,17.70
2018-06-09T21:51:22.608Z,17.70
2018-06-09T21:53:50.835Z,17.60
2018-06-09T21:56:19.080Z,17.60
2018-06-09T21:58:47.286Z,17.50
2018-06-09T22:01:15.498Z,17.50
2018-06-09T22:03:43.687Z,17.50
2018-06-09T22:06:12.915Z,17.40
2018-06-09T22:08:41.106Z,17.40
2018-06-09T22:11:09.438Z,17.40
2018-06-09T22:13:37.636Z,17.30
2018-06-09T22:16:05.827Z,17.30
2018-06-09T22:18:34.040Z,17.30
2018-06-09T22:21:02.229Z,17.20
2018-06-09T22:23:30.441Z,17.20
2018-06-09T22:25:58.680Z,17.20
2018-06-09T22:28:27.259Z,17.20
2018-06-09T22:30:55.466Z,17.20
2018-06-09T22:33:23.663Z,17.20
2018-06-09T22:35:51.871Z,17.20
2018-06-09T22:38:20.110Z,17.20
2018-06-09T22:40:48.343Z,17.20
2018-06-09T22:43:16.559Z,17.20
2018-06-09T22:45:44.786Z,17.20
2018-06-09T22:48:12.968Z,17.20
2018-06-09T22:50:41.777Z,17.10
2018-06-09T22:53:10.012Z,17.10
2018-06-09T22:55:38.227Z,17.10
2018-06-09T22:58:06.427Z,17.10
2018-06-09T23:00:54.564Z,17.10
2018-06-09T23:03:22.808Z,17.10
2018-06-09T23:05:51.116Z,17.10
2018-06-09T23:08:19.293Z,17.10
2018-06-09T23:10:47.487Z,17.20
2018-06-09T23:13:15.762Z,17.20
2018-06-09T23:15:43.963Z,17.20
2018-06-09T23:18:12.152Z,17.20
2018-06-09T23:20:40.367Z,17.20
2018-06-09T23:23:08.572Z,17.30
2018-06-09T23:25:36.899Z,17.30
2018-06-09T23:28:05.116Z,17.30
2018-06-09T23:30:33.324Z,17.30
2018-06-09T23:33:01.663Z,17.30
2018-06-09T23:35:29.833Z,17.40
2018-06-09T23:37:58.024Z,17.40
2018-06-09T23:40:26.324Z,17.40
2018-06-09T23:42:54.483Z,17.40
2018-06-09T23:45:22.659Z,17.40
2018-06-09T23:47:50.876Z,17.40
2018-06-09T23:50:19.070Z,17.40
2018-06-09T23:52:47.278Z,17.40
2018-06-09T23:55:15.507Z,17.40
2018-06-09T23:57:43.707Z,17.50
